Time;durP1;ratioP1;P1;durP2;ratioP2;P2;SDS_P1;SDS_P2;PMS_P1;PMS_P2;Temp;Humidity;BMP_temperature;BMP_pressure;BME280_temperature;BME280_humidity;BME280_pressure;Samples;Min_cycle;Max_cycle;Signal;HPM_P1;HPM_P2
2021/04/08 00:00:36;;;;;;;11.38;5.47;;;;;;;-0.55;83.15;98682.50;1686590;84;21203;-75
2021/04/08 00:03:04;;;;;;;12.05;6.10;;;;;;;-0.59;83.01;98682.74;1619987;88;21142;-76
2021/04/08 00:05:32;;;;;;;12.35;6.20;;;;;;;-0.61;82.99;98684.89;1624808;88;21231;-76
2021/04/08 00:08:00;;;;;;;12.30;6.03;;;;;;;-0.62;83.04;98690.05;1629911;87;21667;-75
2021/04/08 00:10:28;;;;;;;9.75;5.62;;;;;;;-0.64;83.00;98688.97;1640489;86;21229;-73
2021/04/08 00:12:56;;;;;;;12.33;5.97;;;;;;;-0.64;83.09;98690.31;1673715;83;21170;-73
2021/04/08 00:15:23;;;;;;;11.73;5.78;;;;;;;-0.64;83.11;98696.26;1678035;84;21114;-73
2021/04/08 00:17:50;;;;;;;14.23;6.28;;;;;;;-0.66;83.05;98693.82;1682620;84;22457;-74
2021/04/08 00:20:21;;;;;;;11.05;6.10;;;;;;;-0.67;83.11;98696.80;1678849;84;21858;-72
2021/04/08 00:22:48;;;;;;;10.05;5.50;;;;;;;-0.66;83.16;98699.77;1677611;85;21648;-76
2021/04/08 00:25:15;;;;;;;12.23;6.03;;;;;;;-0.65;83.11;98702.20;1681720;84;21568;-73
2021/04/08 00:27:44;;;;;;;14.18;7.22;;;;;;;-0.65;83.03;98698.70;1629804;87;21186;-75
2021/04/08 00:30:13;;;;;;;10.63;6.25;;;;;;;-0.64;82.99;98705.20;1654989;86;22222;-74
2021/04/08 00:32:40;;;;;;;12.78;7.12;;;;;;;-0.64;82.94;98708.44;1610327;87;21215;-76
2021/04/08 00:35:09;;;;;;;15.55;7.12;;;;;;;-0.64;82.94;98716.55;1653873;86;21628;-73
2021/04/08 00:37:37;;;;;;;15.98;8.05;;;;;;;-0.64;82.91;98714.67;1626487;88;21662;-73
2021/04/08 00:40:12;;;;;;;19.20;8.33;;;;;;;-0.65;82.90;98719.80;1683839;84;21145;-74
2021/04/08 00:42:40;;;;;;;15.45;7.60;;;;;;;-0.65;82.90;98722.50;1679788;84;21382;-75
2021/04/08 00:45:09;;;;;;;21.17;8.68;;;;;;;-0.66;82.69;98727.65;1600820;89;21190;-75
2021/04/08 00:47:36;;;;;;;18.92;8.13;;;;;;;-0.69;82.68;98732.77;1608795;88;21122;-75
2021/04/08 00:50:05;;;;;;;19.07;9.90;;;;;;;-0.70;82.73;98740.62;1632218;87;21153;-76
2021/04/08 00:52:32;;;;;;;20.72;8.58;;;;;;;-0.68;82.85;98737.13;1598625;88;21188;-73
2021/04/08 00:55:00;;;;;;;19.10;8.68;;;;;;;-0.67;82.70;98745.51;1589804;90;22163;-73
2021/04/08 00:57:27;;;;;;;19.55;10.72;;;;;;;-0.66;82.63;98744.41;1605268;88;21191;-73
2021/04/08 00:59:56;;;;;;;15.90;8.28;;;;;;;-0.67;82.49;98750.92;1619946;88;21201;-74
2021/04/08 01:02:23;;;;;;;18.07;7.90;;;;;;;-0.68;82.29;98747.39;1620464;88;21205;-75
2021/04/08 01:04:51;;;;;;;15.43;7.40;;;;;;;-0.70;82.19;98752.24;1613089;87;21158;-75
2021/04/08 01:07:19;;;;;;;15.98;7.65;;;;;;;-0.71;82.12;98756.57;1637424;87;21379;-74
2021/04/08 01:09:48;;;;;;;18.62;7.53;;;;;;;-0.75;82.02;98763.87;1633405;87;21182;-76
2021/04/08 01:12:16;;;;;;;17.42;8.38;;;;;;;-0.79;82.18;98759.25;1611495;88;21165;-74
2021/04/08 01:14:43;;;;;;;16.30;7.45;;;;;;;-0.79;82.16;98756.02;1620133;87;21186;-76
2021/04/08 01:17:20;;;;;;;15.20;7.85;;;;;;;-0.81;82.14;98752.75;1603909;88;21187;-74
2021/04/08 01:20:16;;;;;;;20.50;8.63;;;;;;;-0.82;82.18;98760.58;1631691;87;21483;-73
2021/04/08 01:23:29;;;;;;;15.38;7.55;;;;;;;-0.83;82.26;98757.61;1607100;88;21201;-75
2021/04/08 01:26:52;;;;;;;14.55;8.13;;;;;;;-0.83;82.32;98762.20;1629641;87;21166;-76
2021/04/08 01:29:34;;;;;;;21.27;8.05;;;;;;;-0.83;82.28;98768.95;1618166;88;21142;-75
2021/04/08 01:32:03;;;;;;;;;;;;;;;-0.85;82.18;98778.69;1617106;87;21173;-74
2021/04/08 01:34:30;;;;;;;17.90;7.53;;;;;;;-0.87;82.09;98778.16;1615354;87;21399;-75
2021/04/08 01:36:59;;;;;;;13.90;7.33;;;;;;;-0.90;82.07;98778.66;1611691;88;21177;-75
2021/04/08 01:39:26;;;;;;;17.37;8.38;;;;;;;-0.95;82.04;98781.34;1610809;87;21178;-74
2021/04/08 01:41:55;;;;;;;15.88;8.33;;;;;;;-1.01;82.27;98793.47;1605524;88;21160;-75
2021/04/08 01:44:23;;;;;;;12.13;7.30;;;;;;;-1.03;82.40;98797.00;1681089;84;21201;-75
2021/04/08 01:47:00;;;;;;;15.28;7.65;;;;;;;-1.01;82.42;98794.03;1679712;84;21376;-75
2021/04/08 01:49:29;;;;;;;15.15;7.95;;;;;;;-1.02;82.46;98802.68;1674551;84;21417;-74
2021/04/08 01:51:56;;;;;;;15.95;8.33;;;;;;;-1.05;82.56;98803.73;1620410;87;21162;-74
2021/04/08 01:54:32;;;;;;;15.20;8.30;;;;;;;-1.05;82.69;98805.91;1677903;84;21611;-74
2021/04/08 01:57:06;;;;;;;14.43;7.67;;;;;;;-1.05;82.65;98807.78;1689383;84;21102;-75
2021/04/08 01:59:33;;;;;;;18.07;7.30;;;;;;;-1.05;82.62;98815.38;1601774;88;22310;-75
2021/04/08 02:02:03;;;;;;;14.55;7.97;;;;;;;-1.05;82.63;98824.84;1624796;87;21200;-74
2021/04/08 02:04:30;;;;;;;15.35;7.97;;;;;;;-1.05;82.67;98826.19;1630760;87;21148;-75
2021/04/08 02:06:59;;;;;;;20.20;7.90;;;;;;;-1.06;82.71;98825.10;1655073;86;21178;-74
2021/04/08 02:09:26;;;;;;;16.65;9.03;;;;;;;-1.05;82.77;98833.48;1610550;88;21195;-74
2021/04/08 02:11:55;;;;;;;20.95;8.78;;;;;;;-1.05;82.71;98838.89;1673958;85;21433;-75
2021/04/08 02:14:22;;;;;;;15.80;8.43;;;;;;;-1.06;82.74;98835.39;1682627;84;21110;-74
2021/04/08 02:16:50;;;;;;;19.30;8.98;;;;;;;-1.05;82.79;98842.42;1683410;84;21113;-75
2021/04/08 02:19:18;;;;;;;18.23;9.05;;;;;;;-1.05;82.66;98851.06;1620811;88;21166;-73
2021/04/08 02:21:47;;;;;;;20.17;9.18;;;;;;;-1.07;82.72;98851.85;1686934;84;21154;-75
2021/04/08 02:24:15;;;;;;;16.55;9.43;;;;;;;-1.08;82.75;98852.94;1684435;84;21277;-73
2021/04/08 02:26:43;;;;;;;17.80;9.75;;;;;;;-1.10;82.89;98849.14;1653644;86;21568;-73
2021/04/08 02:29:11;;;;;;;20.15;10.50;;;;;;;-1.08;82.85;98857.82;1623378;88;21139;-74
2021/04/08 02:31:39;;;;;;;20.00;10.18;;;;;;;-1.08;82.91;98852.41;1605926;88;21162;-75
2021/04/08 02:34:09;;;;;;;19.45;9.85;;;;;;;-1.07;82.84;98858.09;1655537;85;21142;-73
2021/04/08 02:36:39;;;;;;;20.08;10.23;;;;;;;-1.13;82.74;98858.60;1621970;87;21402;-74
2021/04/08 02:39:09;;;;;;;26.00;12.93;;;;;;;-1.14;82.74;98860.19;1645229;86;21202;-75
2021/04/08 02:41:42;;;;;;;22.58;10.40;;;;;;;-1.16;82.79;98863.70;1645761;86;21171;-74
2021/04/08 02:44:10;;;;;;;;;;;;;;;-1.16;82.86;98871.82;1652151;86;21154;-74
2021/04/08 02:46:37;;;;;;;21.00;10.80;;;;;;;-1.15;82.82;98877.50;1650930;86;20201;-74
2021/04/08 02:49:04;;;;;;;16.50;9.78;;;;;;;-1.19;82.76;98881.25;1649111;86;21678;-75
2021/04/08 02:51:44;;;;;;;18.92;10.68;;;;;;;-1.20;82.81;98880.98;1643967;86;21194;-73
2021/04/08 02:54:39;;;;;;;19.55;10.18;;;;;;;-1.23;82.84;98885.55;1643754;86;21138;-75
2021/04/08 02:57:08;;;;;;;20.90;10.30;;;;;;;-1.20;82.88;98893.15;1648420;86;21667;-75
2021/04/08 02:59:42;;;;;;;19.62;10.58;;;;;;;-1.21;82.88;98896.91;1624443;86;21150;-74
2021/04/08 03:02:14;;;;;;;19.65;10.43;;;;;;;-1.19;82.84;98893.94;1648967;86;21219;-73
2021/04/08 03:04:45;;;;;;;20.25;11.45;;;;;;;-1.18;82.97;98900.47;1647880;86;21167;-74
2021/04/08 03:07:18;;;;;;;22.95;11.63;;;;;;;-1.14;82.74;98908.86;1648200;86;21569;-75
2021/04/08 03:09:45;;;;;;;26.97;11.97;;;;;;;-1.15;82.62;98916.70;1643756;86;21166;-73
2021/04/08 03:12:15;;;;;;;25.40;12.73;;;;;;;-1.17;82.50;98915.61;1647275;86;21122;-74
2021/04/08 03:14:46;;;;;;;21.82;12.18;;;;;;;-1.18;82.42;98921.28;1650880;86;21220;-74
2021/04/08 03:17:18;;;;;;;23.90;11.63;;;;;;;-1.20;82.42;98917.48;1622738;86;21147;-75
2021/04/08 03:19:46;;;;;;;23.92;12.65;;;;;;;-1.20;82.40;98923.42;1651331;86;21193;-74
2021/04/08 03:22:13;;;;;;;22.73;11.55;;;;;;;-1.21;82.40;98928.56;1645971;86;21141;-74
2021/04/08 03:24:41;;;;;;;28.47;12.05;;;;;;;-1.25;82.38;98926.37;1646884;86;21159;-75
2021/04/08 03:27:08;;;;;;;26.35;12.53;;;;;;;-1.25;82.39;98930.95;1651772;86;21382;-75
2021/04/08 03:29:38;;;;;;;24.40;12.05;;;;;;;-1.24;82.28;98929.88;1648420;86;21279;-77
2021/04/08 03:32:07;;;;;;;28.12;11.95;;;;;;;-1.25;82.33;98943.13;1624913;86;21229;-76
2021/04/08 03:34:37;;;;;;;32.50;13.40;;;;;;;-1.26;82.28;98939.59;1645986;86;21178;-75
2021/04/08 03:37:06;;;;;;;27.10;14.15;;;;;;;-1.26;82.47;98942.82;1624900;86;21197;-75
2021/04/08 03:39:36;;;;;;;25.35;13.15;;;;;;;-1.25;82.35;98949.36;1623039;86;22421;-75
2021/04/08 03:42:03;;;;;;;28.07;12.40;;;;;;;-1.24;82.30;98943.39;1627376;87;21170;-74
2021/04/08 03:44:32;;;;;;;21.97;11.63;;;;;;;-1.24;82.23;98948.27;1630670;87;21162;-75
2021/04/08 03:46:59;;;;;;;26.50;13.58;;;;;;;-1.24;82.22;98949.63;1614454;88;21672;-74
2021/04/08 03:49:27;;;;;;;31.52;14.65;;;;;;;-1.21;82.25;98958.30;1617399;88;21165;-76
2021/04/08 03:51:54;;;;;;;33.98;15.93;;;;;;;-1.19;82.27;98961.55;1614043;88;21400;-74
2021/04/08 03:54:23;;;;;;;36.93;15.08;;;;;;;-1.17;82.31;98967.52;1625441;88;21166;-75
2021/04/08 03:56:51;;;;;;;28.35;14.20;;;;;;;-1.15;82.21;98969.44;1620585;88;21127;-74
2021/04/08 03:59:18;;;;;;;24.67;13.62;;;;;;;-1.12;82.13;98975.16;1619927;88;21162;-74
2021/04/08 04:01:46;;;;;;;26.10;14.28;;;;;;;-1.09;82.08;98971.67;1625570;88;21206;-75
2021/04/08 04:04:15;;;;;;;30.97;14.85;;;;;;;-1.06;81.90;98981.44;1618260;88;21252;-74
2021/04/08 04:06:47;;;;;;;25.15;14.70;;;;;;;-1.05;81.87;98974.13;1622969;88;21202;-74
2021/04/08 04:09:13;;;;;;;32.13;14.75;;;;;;;-1.04;81.82;98979.27;1623099;88;21229;-74
2021/04/08 04:11:47;;;;;;;27.98;14.90;;;;;;;-1.01;81.78;98981.46;1622614;88;21210;-75
2021/04/08 04:14:17;;;;;;;;;;;;;;;-0.97;81.75;98989.09;1622071;88;21180;-74
2021/04/08 04:16:45;;;;;;;26.35;14.07;;;;;;;-0.97;81.72;98991.23;1620981;88;21237;-73
2021/04/08 04:19:13;;;;;;;30.77;16.17;;;;;;;-0.94;81.74;98992.10;1624751;88;21186;-73
2021/04/08 04:21:41;;;;;;;30.68;15.53;;;;;;;-0.90;81.61;98996.44;1623922;88;21154;-73
2021/04/08 04:24:08;;;;;;;28.70;14.30;;;;;;;-0.88;81.60;98994.30;1625766;88;21191;-74
2021/04/08 04:26:36;;;;;;;31.73;16.07;;;;;;;-0.85;81.58;98999.19;1620271;88;21281;-75
2021/04/08 04:29:04;;;;;;;28.47;14.95;;;;;;;-0.80;81.59;99007.36;1606046;89;21852;-75
2021/04/08 04:31:33;;;;;;;32.50;16.25;;;;;;;-0.76;81.47;99007.13;1630683;87;21162;-74
2021/04/08 04:34:05;;;;;;;30.35;15.72;;;;;;;-0.75;81.39;99006.05;1619229;88;21135;-74
2021/04/08 04:36:33;;;;;;;23.12;13.13;;;;;;;-0.72;81.43;99012.85;1619763;88;21631;-74
2021/04/08 04:39:02;;;;;;;30.92;15.93;;;;;;;-0.70;81.55;99016.66;1625047;87;21612;-73
2021/04/08 04:41:29;;;;;;;27.98;15.20;;;;;;;-0.68;81.64;99024.78;1620951;88;22439;-74
2021/04/08 04:43:56;;;;;;;29.48;15.70;;;;;;;-0.64;81.65;99026.44;1632106;87;21565;-75
2021/04/08 04:46:24;;;;;;;30.12;15.63;;;;;;;-0.58;81.41;99025.95;1643392;87;21188;-75
2021/04/08 04:48:52;;;;;;;29.30;14.90;;;;;;;-0.53;81.40;99030.06;1644530;87;21161;-74
2021/04/08 04:51:20;;;;;;;27.48;14.35;;;;;;;-0.50;81.17;99031.72;1643520;87;21153;-75
2021/04/08 04:53:47;;;;;;;30.40;14.95;;;;;;;-0.45;81.22;99029.58;1644543;87;22713;-73
2021/04/08 04:56:15;;;;;;;24.75;14.33;;;;;;;-0.40;81.50;99024.73;1644022;87;21257;-77
2021/04/08 04:58:42;;;;;;;27.52;14.63;;;;;;;-0.34;81.49;99025.04;1643665;87;21133;-75
2021/04/08 05:01:10;;;;;;;27.60;16.42;;;;;;;-0.30;81.46;99032.94;1643785;87;21621;-75
2021/04/08 05:03:38;;;;;;;25.97;14.15;;;;;;;-0.24;81.34;99037.87;1641233;87;21129;-74
2021/04/08 05:06:07;;;;;;;23.00;13.03;;;;;;;-0.19;81.27;99031.66;1644655;87;21234;-75
2021/04/08 05:08:34;;;;;;;26.55;13.48;;;;;;;-0.15;80.70;99031.40;1644095;87;21188;-75
2021/04/08 05:11:02;;;;;;;28.23;13.93;;;;;;;-0.12;80.71;99029.55;1644676;87;21164;-74
2021/04/08 05:13:29;;;;;;;22.93;13.00;;;;;;;-0.10;80.84;99030.08;1643911;87;21145;-74
2021/04/08 05:15:58;;;;;;;26.15;14.58;;;;;;;-0.04;80.94;99041.78;1640891;87;21156;-76
2021/04/08 05:18:26;;;;;;;25.70;13.88;;;;;;;-0.01;80.66;99050.20;1643663;87;21357;-76
2021/04/08 05:20:53;;;;;;;24.57;14.45;;;;;;;0.03;80.33;99046.44;1644720;87;21188;-73
2021/04/08 05:23:20;;;;;;;23.25;12.90;;;;;;;0.06;80.54;99054.03;1644534;87;21165;-73
2021/04/08 05:25:51;;;;;;;21.37;14.00;;;;;;;0.11;80.66;99060.84;1644478;87;21153;-75
2021/04/08 05:28:19;;;;;;;25.10;13.70;;;;;;;0.18;80.48;99061.14;1640825;87;21109;-75
2021/04/08 05:30:46;;;;;;;21.82;13.53;;;;;;;0.22;80.36;99063.06;1644243;87;21924;-74
2021/04/08 05:33:15;;;;;;;22.90;13.50;;;;;;;0.23;80.10;99064.70;1644498;87;21201;-74
2021/04/08 05:35:43;;;;;;;22.82;14.47;;;;;;;0.26;80.07;99060.64;1643968;87;21165;-77
2021/04/08 05:38:10;;;;;;;23.05;14.80;;;;;;;0.31;80.38;99064.73;1644088;87;21166;-73
2021/04/08 05:40:37;;;;;;;25.00;13.80;;;;;;;0.38;80.02;99066.39;1644579;87;21173;-74
2021/04/08 05:43:05;;;;;;;28.10;14.43;;;;;;;0.43;80.08;99065.06;1640575;87;21949;-75
2021/04/08 05:45:32;;;;;;;23.77;14.85;;;;;;;0.48;80.44;99072.69;1631323;87;21193;-78
2021/04/08 05:48:00;;;;;;;20.95;13.60;;;;;;;0.57;80.18;99083.86;1628644;87;21198;-74
2021/04/08 05:50:31;;;;;;;23.15;14.18;;;;;;;0.62;79.94;99080.34;1627815;87;21137;-76
2021/04/08 05:52:59;;;;;;;23.77;14.38;;;;;;;0.65;79.74;99075.73;1684655;84;21193;-77
2021/04/08 05:55:28;;;;;;;27.80;14.13;;;;;;;0.68;79.89;99075.20;1683291;84;22303;-78
2021/04/08 05:57:55;;;;;;;23.05;14.05;;;;;;;0.78;80.37;99081.77;1641321;86;21162;-77
2021/04/08 06:00:23;;;;;;;23.80;14.58;;;;;;;0.85;79.96;99079.06;1652349;86;21166;-74
2021/04/08 06:02:51;;;;;;;30.72;16.50;;;;;;;0.90;79.53;99078.83;1653288;86;21162;-73
2021/04/08 06:05:18;;;;;;;20.70;13.40;;;;;;;0.91;79.73;99087.23;1621046;88;21230;-79
2021/04/08 06:07:48;;;;;;;21.95;13.08;;;;;;;0.93;79.41;99091.32;1653711;86;21212;-76
2021/04/08 06:10:16;;;;;;;24.45;15.90;;;;;;;0.99;79.76;99094.05;1654494;86;21175;-76
2021/04/08 06:12:44;;;;;;;26.87;15.10;;;;;;;1.01;79.04;99106.82;1653683;86;21655;-76
2021/04/08 06:15:13;;;;;;;28.27;14.33;;;;;;;1.02;79.14;99110.63;1620835;88;21584;-75
2021/04/08 06:17:41;;;;;;;23.02;14.07;;;;;;;1.04;78.52;99109.80;1614421;88;21603;-75
2021/04/08 06:20:12;;;;;;;22.98;13.70;;;;;;;1.00;79.10;99119.56;1645713;86;21187;-75
2021/04/08 06:22:41;;;;;;;25.15;14.10;;;;;;;1.03;79.11;99116.84;1642270;86;21591;-76
2021/04/08 06:25:09;;;;;;;25.27;13.40;;;;;;;1.05;79.09;99121.47;1645126;86;21139;-73
2021/04/08 06:27:36;;;;;;;26.75;15.15;;;;;;;1.05;79.23;99110.62;1646502;86;21218;-74
2021/04/08 06:30:06;;;;;;;24.20;15.23;;;;;;;1.09;79.27;99117.16;1644872;86;21166;-76
2021/04/08 06:32:34;;;;;;;24.27;15.35;;;;;;;1.11;79.02;99122.31;1646741;86;21464;-74
2021/04/08 06:35:02;;;;;;;25.43;15.55;;;;;;;1.14;79.17;99123.13;1643004;86;21119;-76
2021/04/08 06:37:29;;;;;;;20.92;15.18;;;;;;;1.19;79.44;99125.33;1648518;86;21150;-74
2021/04/08 06:39:56;;;;;;;25.35;16.20;;;;;;;1.27;79.16;99134.02;1644143;86;21127;-75
2021/04/08 06:42:23;;;;;;;23.42;16.45;;;;;;;1.28;79.06;99130.23;1645055;86;21153;-76
2021/04/08 06:44:53;;;;;;;26.70;17.20;;;;;;;1.19;77.85;99142.98;1646086;86;21833;-74
2021/04/08 06:47:33;;;;;;;25.25;16.27;;;;;;;1.11;78.45;99144.03;1650284;86;21182;-75
2021/04/08 06:50:06;;;;;;;22.90;14.90;;;;;;;1.15;78.90;99149.18;1647128;86;21134;-73
2021/04/08 06:52:33;;;;;;;25.97;15.95;;;;;;;1.18;78.50;99154.90;1650124;86;21178;-75
2021/04/08 06:55:03;;;;;;;26.10;15.88;;;;;;;1.17;78.51;99160.59;1649557;86;21142;-76
2021/04/08 06:57:32;;;;;;;26.57;15.78;;;;;;;1.17;78.40;99164.13;1625770;86;21713;-75
2021/04/08 06:59:59;;;;;;;35.43;18.55;;;;;;;1.19;78.54;99166.05;1650606;86;21137;-76
2021/04/08 07:02:28;;;;;;;23.60;16.17;;;;;;;1.21;78.50;99176.64;1650125;86;21146;-78
2021/04/08 07:04:58;;;;;;;25.10;16.02;;;;;;;1.20;78.32;99171.74;1648961;86;21162;-76
2021/04/08 07:07:24;;;;;;;21.07;15.35;;;;;;;1.24;78.84;99176.63;1647923;86;21210;-77
2021/04/08 07:09:51;;;;;;;24.50;17.02;;;;;;;1.28;79.10;99174.47;1626711;86;22279;-76
2021/04/08 07:12:21;;;;;;;25.55;15.03;;;;;;;1.35;78.61;99178.29;1648447;86;21593;-75
2021/04/08 07:14:53;;;;;;;25.20;16.02;;;;;;;1.43;78.85;99176.41;1650852;86;21620;-75
2021/04/08 07:17:21;;;;;;;29.65;16.73;;;;;;;1.47;78.69;99173.98;1631568;87;21259;-75
2021/04/08 07:19:52;;;;;;;29.25;16.30;;;;;;;1.50;78.06;99175.36;1651892;86;21168;-75
2021/04/08 07:22:19;;;;;;;26.15;16.05;;;;;;;1.49;77.94;99179.97;1619463;86;21477;-77
2021/04/08 07:24:48;;;;;;;35.45;18.00;;;;;;;1.55;78.00;99182.16;1648083;86;21162;-77
2021/04/08 07:27:19;;;;;;;28.05;17.05;;;;;;;1.56;77.62;99181.89;1652046;86;21572;-75
2021/04/08 07:29:55;;;;;;;26.97;17.35;;;;;;;1.57;77.52;99188.13;1628226;87;21206;-74
2021/04/08 07:32:35;;;;;;;25.25;16.02;;;;;;;1.61;77.81;99189.77;1635525;87;21613;-77
2021/04/08 07:35:16;;;;;;;22.17;15.45;;;;;;;1.66;77.60;99196.56;1628236;87;21403;-76
2021/04/08 07:37:57;;;;;;;28.85;17.85;;;;;;;1.67;77.44;99201.73;1643184;87;21158;-75
2021/04/08 07:40:27;;;;;;;27.85;17.23;;;;;;;1.66;76.48;99201.47;1627470;87;21615;-76
2021/04/08 07:42:55;;;;;;;25.15;16.77;;;;;;;1.62;76.79;99212.58;1633425;87;21180;-75
2021/04/08 07:45:29;;;;;;;28.02;17.62;;;;;;;1.60;76.93;99211.23;1623969;86;21119;-75
2021/04/08 07:48:00;;;;;;;26.52;18.10;;;;;;;1.63;77.73;99220.20;1618865;88;21377;-72
2021/04/08 07:50:29;;;;;;;28.23;17.42;;;;;;;1.73;78.19;99213.44;1620055;88;21229;-76
2021/04/08 07:52:57;;;;;;;23.95;15.63;;;;;;;1.87;78.11;99216.45;1615671;88;21191;-75
2021/04/08 07:55:51;;;;;;;24.32;16.30;;;;;;;1.99;77.82;99215.37;1617180;88;21212;-75
2021/04/08 07:58:20;;;;;;;23.45;15.20;;;;;;;2.04;77.25;99208.59;1717890;80;21554;-73
2021/04/08 08:00:53;;;;;;;25.97;16.50;;;;;;;2.10;76.33;99209.42;1724960;82;21593;-71
2021/04/08 08:03:31;;;;;;;22.85;15.28;;;;;;;2.16;76.90;99207.79;1736282;82;21167;-71
2021/04/08 08:07:03;;;;;;;26.60;16.35;;;;;;;2.31;77.31;99225.17;1594572;90;21180;-73
2021/04/08 08:10:01;;;;;;;22.25;15.38;;;;;;;2.54;77.25;99215.64;1609469;89;21492;-73
2021/04/08 08:13:52;;;;;;;20.60;14.73;;;;;;;2.86;75.75;99210.98;1601267;89;21230;-71
2021/04/08 08:17:12;;;;;;;23.25;13.95;;;;;;;3.09;74.08;99220.97;1597702;89;21842;-72
2021/04/08 08:19:59;;;;;;;23.70;14.43;;;;;;;3.27;74.57;99225.01;1917641;74;22816;-73
2021/04/08 08:22:32;;;;;;;20.17;13.55;;;;;;;3.26;72.98;99236.16;1884414;75;21093;-73
2021/04/08 08:25:28;;;;;;;18.27;13.43;;;;;;;3.24;72.78;99229.63;1849331;75;21382;-74
2021/04/08 08:27:58;;;;;;;23.57;14.10;;;;;;;3.22;71.41;99231.83;1883254;75;21161;-74
2021/04/08 08:31:17;;;;;;;;;;;;;;;3.25;72.44;99227.72;1855077;77;21026;-71
2021/04/08 08:35:09;;;;;;;21.95;13.88;;;;;;;3.43;72.11;99227.64;1852189;77;20234;-72
2021/04/08 08:38:15;;;;;;;19.62;13.20;;;;;;;3.56;71.00;99237.14;1848642;77;21605;-72
2021/04/08 08:40:47;;;;;;;18.15;12.78;;;;;;;3.58;69.86;99234.13;1851336;77;21623;-72
2021/04/08 08:43:34;;;;;;;22.67;13.30;;;;;;;3.52;69.58;99245.59;1850747;77;21069;-71
2021/04/08 08:46:02;;;;;;;20.15;12.98;;;;;;;3.47;69.62;99241.52;1851150;77;21120;-71
2021/04/08 08:48:30;;;;;;;18.23;12.53;;;;;;;3.44;69.49;99243.45;1849109;77;22163;-72
2021/04/08 08:50:58;;;;;;;17.80;13.45;;;;;;;3.45;68.72;99243.70;1783821;80;21192;-71
2021/04/08 08:54:10;;;;;;;20.35;13.08;;;;;;;3.52;69.71;99243.69;1783437;79;21176;-71
2021/04/08 08:56:44;;;;;;;19.25;13.45;;;;;;;3.74;69.93;99245.21;1785820;79;21637;-71
2021/04/08 08:59:13;;;;;;;20.45;13.10;;;;;;;3.81;68.53;99250.35;1800266;78;21133;-71
2021/04/08 09:01:58;;;;;;;17.23;12.45;;;;;;;3.76;66.88;99254.47;1786612;80;21145;-71
2021/04/08 09:04:34;;;;;;;23.62;12.78;;;;;;;3.63;66.39;99253.18;1811406;78;21142;-71
2021/04/08 09:07:27;;;;;;;18.60;11.97;;;;;;;3.55;66.99;99251.05;1825161;77;21091;-71
2021/04/08 09:10:01;;;;;;;15.38;9.83;;;;;;;3.55;67.55;99255.92;1757060;80;21133;-72
2021/04/08 09:17:13;;;;;;;17.17;11.40;;;;;;;3.82;64.77;99247.09;1673018;85;22300;-71
2021/04/08 09:20:12;;;;;;;17.17;10.20;;;;;;;3.94;64.98;99263.10;1648524;84;21166;-72
2021/04/08 09:23:12;;;;;;;18.10;10.50;;;;;;;4.25;64.95;99255.52;1782945;77;28441;-72
2021/04/08 09:25:52;;;;;;;14.85;9.80;;;;;;;4.39;64.25;99254.87;1783621;78;21203;-72
2021/04/08 09:28:32;;;;;;;21.00;11.05;;;;;;;4.60;63.30;99261.53;1785262;78;21372;-72
2021/04/08 09:31:41;;;;;;;16.97;9.80;;;;;;;4.76;64.67;99263.55;1785034;78;21156;-72
2021/04/08 09:35:11;;;;;;;12.43;8.30;;;;;;;4.94;61.09;99263.94;1733231;81;21142;-71
2021/04/08 09:37:54;;;;;;;13.95;9.18;;;;;;;4.69;59.11;99263.09;1734553;81;21471;-71
2021/04/08 09:41:06;;;;;;;15.23;9.05;;;;;;;4.51;60.30;99273.61;1732974;81;21158;-71
2021/04/08 09:43:53;;;;;;;12.73;9.03;;;;;;;4.43;59.58;99266.86;1650956;85;21216;-71
2021/04/08 09:46:41;;;;;;;17.02;9.38;;;;;;;4.63;62.64;99274.05;1853268;75;22668;-71
2021/04/08 09:56:59;;;;;;;18.07;9.73;;;;;;;5.07;58.44;99261.89;1637033;86;21261;-70
2021/04/08 09:59:59;;;;;;;17.62;8.45;;;;;;;5.00;58.25;99270.97;1768542;79;21161;-71
2021/04/08 10:02:27;;;;;;;18.37;9.60;;;;;;;4.92;58.28;99263.41;1777313;80;21103;-71
2021/04/08 10:05:10;;;;;;;12.25;7.83;;;;;;;4.90;58.33;99276.53;1771219;80;21150;-71
2021/04/08 10:07:56;;;;;;;15.38;7.80;;;;;;;4.88;57.15;99274.09;1769691;80;21366;-72
2021/04/08 10:10:44;;;;;;;14.43;8.45;;;;;;;4.86;57.11;99282.57;1743209;80;21043;-71
2021/04/08 10:13:25;;;;;;;12.37;8.50;;;;;;;4.98;56.63;99275.36;1772096;80;21148;-72
2021/04/08 10:16:11;;;;;;;11.73;7.85;;;;;;;5.09;56.11;99271.98;1771522;80;21613;-71
2021/04/08 10:18:49;;;;;;;9.58;6.33;;;;;;;5.18;56.21;99280.36;1772614;80;21620;-71
2021/04/08 10:21:19;;;;;;;12.20;6.60;;;;;;;5.17;54.94;99284.18;1772820;80;22098;-71
2021/04/08 10:23:54;;;;;;;18.65;6.08;;;;;;;5.10;53.39;99289.98;1778840;80;21141;-71
2021/04/08 10:26:42;;;;;;;12.28;6.60;;;;;;;5.14;53.34;99276.57;1774182;80;21154;-71
2021/04/08 10:29:34;;;;;;;11.50;5.83;;;;;;;5.32;52.96;99276.36;1775716;80;21157;-72
2021/04/08 10:32:34;;;;;;;9.53;6.90;;;;;;;5.57;54.55;99283.20;1773872;80;21141;-71
2021/04/08 10:35:03;;;;;;;9.93;6.40;;;;;;;5.68;52.73;99279.80;1742322;80;22257;-72
2021/04/08 10:37:33;;;;;;;10.90;6.55;;;;;;;5.62;51.87;99280.41;1772072;80;21204;-72
2021/04/08 10:40:10;;;;;;;10.80;6.08;;;;;;;5.52;52.25;99279.16;1772442;80;21101;-73
2021/04/08 10:42:39;;;;;;;11.68;7.12;;;;;;;5.43;52.99;99285.81;1772245;80;21113;-72
2021/04/08 10:45:08;;;;;;;12.40;7.10;;;;;;;5.29;52.53;99280.26;1767524;80;21085;-72
2021/04/08 10:47:37;;;;;;;15.32;7.55;;;;;;;5.16;53.57;99285.84;1762505;80;21432;-72
2021/04/08 10:50:07;;;;;;;13.48;8.68;;;;;;;5.15;54.72;99280.95;1765128;80;21197;-72
2021/04/08 10:52:36;;;;;;;16.52;8.35;;;;;;;5.38;56.90;99288.60;1766022;80;21134;-72
2021/04/08 10:55:09;;;;;;;22.35;8.33;;;;;;;5.62;55.59;99287.23;1768087;80;21182;-72
2021/04/08 10:57:39;;;;;;;12.03;7.13;;;;;;;5.72;54.38;99296.67;1735018;80;21149;-70
2021/04/08 11:00:08;;;;;;;14.87;7.40;;;;;;;5.69;54.65;99295.91;1767785;80;22643;-74
2021/04/08 11:02:43;;;;;;;53.48;10.55;;;;;;;5.70;53.56;99302.98;1764429;80;21600;-72
2021/04/08 11:05:35;;;;;;;20.97;7.47;;;;;;;5.79;54.36;99302.33;1764043;80;21151;-72
2021/04/08 11:08:04;;;;;;;12.35;6.58;;;;;;;6.02;54.39;99297.91;1769157;80;21571;-71
2021/04/08 11:10:37;;;;;;;20.23;8.58;;;;;;;6.21;54.28;99304.80;1767789;80;21134;-72
2021/04/08 11:13:11;;;;;;;16.77;8.70;;;;;;;6.33;53.57;99296.14;1766107;80;21324;-71
2021/04/08 11:15:46;;;;;;;13.60;8.00;;;;;;;6.46;53.47;99296.51;1766735;80;21572;-72
2021/04/08 11:18:36;;;;;;;14.20;7.65;;;;;;;6.53;51.99;99301.60;1758336;81;21571;-72
2021/04/08 11:21:05;;;;;;;20.30;8.60;;;;;;;6.57;51.69;99301.25;1761874;80;21154;-72
2021/04/08 11:23:47;;;;;;;12.13;7.42;;;;;;;6.57;51.76;99296.59;1759220;80;21146;-72
2021/04/08 11:26:14;;;;;;;11.43;7.10;;;;;;;6.57;50.27;99285.64;1764926;80;21803;-72
2021/04/08 11:28:43;;;;;;;22.95;8.53;;;;;;;6.57;51.08;99291.66;1766426;80;21162;-73
2021/04/08 11:31:19;;;;;;;13.45;7.58;;;;;;;6.78;51.87;99281.20;1761649;80;21129;-72
2021/04/08 11:33:57;;;;;;;13.58;5.85;;;;;;;7.04;49.45;99276.64;1763306;80;21582;-71
2021/04/08 11:40:10;;;;;;;8.58;6.17;;;;;;;7.17;47.36;99287.90;1760925;80;21579;-71
2021/04/08 11:42:40;;;;;;;10.80;5.53;;;;;;;7.25;46.25;99288.56;1762295;81;21142;-71
2021/04/08 11:45:30;;;;;;;8.23;5.55;;;;;;;7.09;45.43;99277.64;1769273;80;21162;-72
2021/04/08 11:48:04;;;;;;;8.68;6.45;;;;;;;6.91;45.76;99293.29;1764771;81;21134;-72
2021/04/08 11:50:38;;;;;;;13.65;7.03;;;;;;;6.93;46.29;99293.80;1762684;80;21177;-71
2021/04/08 11:53:11;;;;;;;12.50;6.97;;;;;;;7.04;48.83;99304.59;1766309;80;21382;-71
2021/04/08 11:55:59;;;;;;;10.00;5.85;;;;;;;7.23;48.98;99307.81;1761151;80;21193;-70
2021/04/08 11:58:32;;;;;;;6.95;5.58;;;;;;;7.35;45.45;99303.20;1760875;80;21129;-71
2021/04/08 12:01:10;;;;;;;12.18;6.50;;;;;;;7.39;45.42;99316.54;1767320;80;21142;-72
2021/04/08 12:03:41;;;;;;;8.05;5.35;;;;;;;7.49;45.04;99301.84;1765237;80;21559;-71
2021/04/08 12:06:11;;;;;;;10.60;5.95;;;;;;;7.60;44.87;99309.30;1763112;80;21685;-72
2021/04/08 12:08:45;;;;;;;11.08;6.15;;;;;;;7.70;45.19;99315.13;1762337;81;21725;-71
2021/04/08 12:11:17;;;;;;;11.35;6.35;;;;;;;7.63;46.08;99308.67;1765335;80;21110;-72
2021/04/08 12:14:04;;;;;;;14.00;6.25;;;;;;;7.37;47.09;99316.84;1762196;81;21138;-72